• Join FlightAware (Why Join?)
  • Login
  • US Flag 
04:28PM EDT


 

Airport Tracker/Info


-or-


 

Live Flight TrackerFlight Track Log ✈ SWA245 ✈ 25-Jul-2013 ✈ KBWI - KHOU

Flight Track Log - Related Links

Times and Time Zones

All times are in EDT time to prevent confusion due to time zone crossing. See the SWA245 flight status page for this flight to view local times or setup timezone preferences in your user account.

Time Position Orientation Groundspeed Altitude Reporting Facility
EDT Latitude Longitude Course Direction KTS MPH feet Rate Location/Type
10:55AM 39.1810 -76.8010 278° West 230 265 3,700  Level FlightAware
10:55AM 39.1840 -76.8150 285° West 230 265 4,200 2,160 Climbing FlightAware
10:56AM 39.1940 -76.8480 291° West 249 287 5,100 3,060 Climbing FlightAware
10:56AM 39.2060 -76.8990 287° West 253 291 7,100 2,940 Climbing FlightAware
10:57AM 39.2140 -76.9320 287° West 266 306 8,000 2,340 Climbing FlightAware
10:57AM 39.2160 -76.9630 275° West 272 313 8,900 2,460 Climbing FlightAware
10:58AM 39.2111 -77.0300 275° West 279 321 10,300 1,980 Climbing Washington Center
10:59AM 39.2119 -77.1453 271° West 325 374 12,200 2,280 Climbing Washington Center
11:05AM 38.6650 -77.5730 271° West 408 470 25,800 2,220 Climbing FlightAware
11:05AM 38.6030 -77.6330 217° Southwest 418 481 26,600 1,080 Climbing FlightAware
11:06AM 38.5430 -77.6930 218° Southwest 429 494 27,300 1,140 Climbing FlightAware
11:07AM 38.4850 -77.7720 227° Southwest 440 506 28,200 1,620 Climbing FlightAware
11:07AM 38.4430 -77.8680 241° Southwest 432 497 29,600 1,800 Climbing FlightAware
11:08AM 38.4060 -77.9550 242° Southwest 427 491 30,700 1,620 Climbing FlightAware
11:09AM 38.3610 -78.0580 241° Southwest 422 486 32,000 1,560 Climbing FlightAware
11:09AM 38.3230 -78.1470 241° Southwest 418 481 33,000 1,380 Climbing FlightAware
11:10AM 38.2850 -78.2340 241° Southwest 414 476 33,900 1,200 Climbing FlightAware
11:11AM 38.2460 -78.3230 241° Southwest 411 473 34,700 1,020 Climbing FlightAware
11:11AM 38.2140 -78.3960 241° Southwest 409 471 35,400 900 Climbing FlightAware
11:12AM 38.1710 -78.4950 241° Southwest 405 466 36,000 420 Climbing FlightAware
11:13AM 38.1300 -78.5880 241° Southwest 406 467 36,000  Level FlightAware
11:14AM 38.0900 -78.6800 241° Southwest 405 466 36,000  Level FlightAware
11:14AM 38.0560 -78.7560 240° Southwest 404 465 36,000  Level FlightAware
11:15AM 38.0150 -78.8490 241° Southwest 403 464 36,000  Level FlightAware
11:16AM 37.9780 -78.9330 241° Southwest 402 463 36,000  Level FlightAware
11:16AM 37.9390 -79.0200 240° Southwest 401 461 36,000  Level FlightAware
11:17AM 37.9040 -79.0990 241° Southwest 400 460 36,000  Level FlightAware
11:18AM 37.8660 -79.1760 238° Southwest 398 458 36,000  Level FlightAware
11:18AM 37.8230 -79.2630 238° Southwest 404 465 36,000  Level FlightAware
11:19AM 37.7780 -79.3540 238° Southwest 409 471 36,000  Level FlightAware
11:20AM 37.7340 -79.4420 238° Southwest 409 471 36,000  Level FlightAware
11:20AM 37.7020 -79.5050 237° Southwest 409 471 36,000  Level FlightAware
11:21AM 37.6600 -79.5900 238° Southwest 409 471 36,000  Level FlightAware
11:22AM 37.6210 -79.6680 238° Southwest 413 475 36,000  Level FlightAware
11:23AM 37.5660 -79.7760 237° Southwest 415 478 36,000  Level FlightAware
11:23AM 37.5230 -79.8580 237° Southwest 415 478 36,000  Level FlightAware
11:24AM 37.5020 -79.9000 238° Southwest 415 478 36,000  Level FlightAware
11:25AM 37.4590 -79.9830 237° Southwest 415 478 36,000  Level FlightAware
11:25AM 37.4270 -80.0450 237° Southwest 415 478 36,000  Level FlightAware
11:26AM 37.3950 -80.1070 237° Southwest 415 478 36,000  Level FlightAware
11:27AM 37.3520 -80.1910 237° Southwest 415 478 36,000  Level FlightAware
11:27AM 37.3200 -80.2530 237° Southwest 415 478 36,000  Level FlightAware
11:28AM 37.2880 -80.3150 237° Southwest 415 478 36,000  Level FlightAware
11:29AM 37.2560 -80.3770 237° Southwest 415 478 36,000  Level FlightAware
11:29AM 37.2130 -80.4590 237° Southwest 415 478 36,000  Level FlightAware
11:30AM 37.1810 -80.5210 237° Southwest 415 478 36,000  Level FlightAware
11:31AM 37.1490 -80.5830 237° Southwest 415 478 36,000  Level FlightAware
11:31AM 37.1060 -80.6650 237° Southwest 415 478 36,000  Level FlightAware
11:32AM 37.0740 -80.7270 237° Southwest 415 478 36,000  Level FlightAware
11:34AM 36.8930 -81.1640 243° Southwest 36,000  Level FlightAware
11:36AM 36.7840 -81.3740 237° Southwest 435 501 36,000  Level FlightAware
11:36AM 36.7300 -81.4790 237° Southwest 435 501 36,000  Level FlightAware
11:37AM 36.7530 -81.4340 57° Northeast 435 501 36,000  Level FlightAware
11:38AM 36.7080 -81.5200 237° Southwest 435 501 36,000  Level FlightAware
11:39AM 36.6750 -81.5850 238° Southwest 435 501 36,000  Level FlightAware
11:40AM 36.6290 -81.6720 237° Southwest 435 501 36,000  Level FlightAware
11:40AM 36.5960 -81.7370 238° Southwest 435 501 36,000  Level FlightAware
11:41AM 36.5510 -81.8220 237° Southwest 435 501 36,000  Level FlightAware
11:42AM 36.5160 -81.8880 237° Southwest 435 501 36,000  Level FlightAware
11:42AM 36.4800 -81.9580 237° Southwest 435 501 36,000  Level FlightAware
11:43AM 36.2980 -82.2980 236° Southwest 427 491 36,000  Level FlightAware
11:44AM 36.2480 -82.3900 236° Southwest 428 493 36,000  Level FlightAware
11:44AM 36.2120 -82.4580 237° Southwest 431 496 36,000  Level FlightAware
11:45AM 36.1680 -82.5400 236° Southwest 434 499 36,000  Level FlightAware
11:45AM 36.1310 -82.6080 236° Southwest 434 499 36,000  Level FlightAware
11:46AM 36.0770 -82.7080 236° Southwest 440 506 36,000  Level FlightAware
11:47AM 36.0380 -82.7800 236° Southwest 442 509 36,000  Level FlightAware
11:48AM 35.9900 -82.8680 236° Southwest 442 509 36,000  Level FlightAware
11:48AM 35.9370 -82.9660 236° Southwest 441 507 36,000  Level FlightAware
11:49AM 35.8710 -83.0870 236° Southwest 440 506 36,000  Level FlightAware
11:50AM 35.8120 -83.1950 236° Southwest 442 509 36,000  Level FlightAware
11:51AM 35.7390 -83.3280 236° Southwest 443 510 36,000  Level FlightAware
11:52AM 35.7040 -83.3920 236° Southwest 443 510 36,000  Level FlightAware
11:53AM 35.6370 -83.5140 236° Southwest 444 511 36,000  Level FlightAware
11:53AM 35.5980 -83.5840 236° Southwest 443 510 36,000  Level FlightAware
11:54AM 35.5510 -83.6680 235° Southwest 441 507 36,000  Level FlightAware
11:55AM 35.5000 -83.7600 236° Southwest 441 507 36,000  Level FlightAware
11:55AM 35.4540 -83.8420 235° Southwest 441 507 36,000  Level FlightAware
11:56AM 35.3880 -83.9610 236° Southwest 448 516 36,000  Level FlightAware
11:57AM 35.3380 -84.0490 235° Southwest 447 514 36,000  Level FlightAware
11:58AM 35.2910 -84.1330 236° Southwest 444 511 36,000 -300 Level FlightAware
11:58AM 35.2510 -84.2030 235° Southwest 442 509 35,700 -780 Descending FlightAware
11:59AM 35.1970 -84.2990 235° Southwest 443 510 35,000 -840 Descending FlightAware
12:00PM 35.1510 -84.3800 235° Southwest 442 509 34,500 -780 Descending FlightAware
12:00PM 35.1050 -84.4620 236° Southwest 441 507 34,000 -420 Descending FlightAware
12:01PM 35.0600 -84.5400 235° Southwest 441 507 34,000  Level FlightAware
12:02PM 35.0030 -84.6400 235° Southwest 441 507 34,000  Level FlightAware
12:02PM 34.9580 -84.7190 235° Southwest 440 506 34,000  Level FlightAware
12:03PM 34.9130 -84.7970 235° Southwest 438 504 34,000  Level FlightAware
12:04PM 34.8660 -84.8790 235° Southwest 438 504 34,000  Level FlightAware
12:04PM 34.8150 -84.9680 235° Southwest 437 503 34,000  Level FlightAware
12:05PM 34.7800 -85.0280 235° Southwest 435 501 34,000  Level FlightAware
12:06PM 34.7270 -85.1190 235° Southwest 434 499 34,000  Level FlightAware
12:06PM 34.6780 -85.2040 235° Southwest 433 498 34,000  Level FlightAware
12:07PM 34.6370 -85.2750 235° Southwest 435 501 34,000  Level FlightAware
12:08PM 34.5970 -85.3440 235° Southwest 435 501 34,000  Level FlightAware
12:08PM 34.5430 -85.4360 235° Southwest 436 502 34,000  Level FlightAware
12:09PM 34.4960 -85.5160 235° Southwest 436 502 34,000  Level FlightAware
12:10PM 34.4480 -85.5990 235° Southwest 437 503 34,000  Level FlightAware
12:11PM 34.3850 -85.7050 234° Southwest 439 505 34,000  Level FlightAware
12:11PM 34.3280 -85.8020 235° Southwest 439 505 34,000  Level FlightAware
12:12PM 34.2950 -85.8580 235° Southwest 440 506 34,000  Level FlightAware
12:13PM 34.2350 -85.9590 234° Southwest 34,000  Level FlightAware
12:13PM 34.1910 -86.0340 235° Southwest 34,000  Level FlightAware
12:14PM 34.1490 -86.1260 241° Southwest 438 504 34,000  Level FlightAware
12:15PM 34.1180 -86.1850 238° Southwest 438 504 34,000  Level FlightAware
12:15PM 34.0700 -86.2700 236° Southwest 438 504 34,000  Level FlightAware
12:16PM 34.0360 -86.3320 237° Southwest 438 504 34,000  Level FlightAware
12:17PM 33.9890 -86.4140 235° Southwest 438 504 34,000  Level FlightAware
12:17PM 33.9550 -86.4760 237° Southwest 438 504 34,000  Level FlightAware
12:18PM 33.9080 -86.5590 236° Southwest 438 504 34,000  Level FlightAware
12:19PM 33.8740 -86.6210 237° Southwest 438 504 34,000  Level FlightAware
12:20PM 33.8280 -86.7030 236° Southwest 438 504 34,000  Level FlightAware
12:20PM 33.7930 -86.7650 236° Southwest 438 504 34,000  Level FlightAware
12:21PM 33.7470 -86.8480 236° Southwest 438 504 34,000  Level FlightAware
12:22PM 33.7120 -86.9100 236° Southwest 438 504 34,000  Level FlightAware
12:22PM 33.6620 -86.9990 236° Southwest 438 504 34,000  Level FlightAware
12:23PM 33.6260 -87.0620 236° Southwest 438 504 34,000  Level FlightAware
12:24PM 33.5910 -87.1260 237° Southwest 438 504 34,000  Level FlightAware
12:24PM 33.5917 -87.4444 237° Southwest 433 498 34,000  Level Memphis Center
12:25PM 33.5342 -87.5736 242° Southwest 433 498 34,000  Level Memphis Center
12:26PM 33.4786 -87.7047 243° Southwest 444 511 34,000  Level Memphis Center
12:27PM 33.4208 -87.8361 242° Southwest 444 511 34,000  Level Memphis Center
12:28PM 33.3669 -87.9669 244° Southwest 444 511 34,000  Level Memphis Center
12:29PM 33.3089 -88.0928 241° Southwest 439 505 34,000  Level Memphis Center
12:30PM 33.2628 -88.2106 245° Southwest 439 505 34,000  Level Memphis Center
12:31PM 33.2044 -88.3411 242° Southwest 434 499 34,000  Level Memphis Center
12:32PM 33.1439 -88.4692 241° Southwest 434 499 34,000  Level Memphis Center
12:33PM 33.0894 -88.5992 243° Southwest 439 505 34,000  Level Memphis Center
12:34PM 33.0328 -88.7292 243° Southwest 439 505 34,000  Level Memphis Center
12:35PM 32.9761 -88.8617 243° Southwest 444 511 34,000  Level Memphis Center
12:36PM 32.9233 -88.9936 245° Southwest 444 511 34,000 -420 Level Memphis Center
12:37PM 32.8683 -89.1256 244° Southwest 444 511 33,200 -900 Descending Memphis Center
12:38PM 32.8131 -89.2597 244° Southwest 449 517 32,200 -960 Descending Memphis Center
12:39PM 32.7578 -89.3939 244° Southwest 449 517 31,300 -960 Descending Memphis Center
12:40PM 32.7044 -89.5228 244° Southwest 449 517 30,300 -660 Descending Memphis Center
12:41PM 32.6492 -89.6542 243° Southwest 449 517 30,000 -180 Descending Memphis Center
12:42PM 32.5975 -89.7803 244° Southwest 444 511 30,000  Level Memphis Center
12:43PM 32.5458 -89.9064 244° Southwest 439 505 30,000  Level Memphis Center
12:44PM 32.4919 -90.0347 244° Southwest 439 505 30,000  Level Memphis Center
12:45PM 32.4400 -90.1603 244° Southwest 434 499 30,000  Level Memphis Center
12:46PM 32.3858 -90.2861 243° Southwest 434 499 30,000  Level Memphis Center
12:47PM 32.3317 -90.4139 243° Southwest 434 499 30,000  Level Memphis Center
12:48PM 32.2772 -90.5442 244° Southwest 429 494 30,000  Level Memphis Center
12:49PM 32.2417 -90.6275 243° Southwest 433 498 30,000  Level Houston Center
12:50PM 32.1892 -90.7539 244° Southwest 431 496 30,000  Level Houston Center
12:51PM 32.1269 -90.8992 243° Southwest 435 501 30,000  Level Houston Center
12:52PM 32.0739 -91.0247 244° Southwest 431 496 30,000  Level Houston Center
12:53PM 32.0169 -91.1508 242° Southwest 435 501 30,000  Level Houston Center
12:54PM 31.9622 -91.2775 243° Southwest 435 501 30,000  Level Houston Center
12:55PM 31.8967 -91.4283 243° Southwest 432 497 30,000  Level Houston Center
12:56PM 31.8422 -91.5553 243° Southwest 435 501 30,000  Level Houston Center
12:57PM 31.7875 -91.6828 243° Southwest 436 502 30,000  Level Houston Center
12:58PM 31.7303 -91.8094 242° Southwest 439 505 30,000  Level Houston Center
12:59PM 31.6758 -91.9361 243° Southwest 436 502 30,000  Level Houston Center
01:00PM 31.6128 -92.0756 242° Southwest 432 497 30,000  Level Houston Center
01:01PM 31.5572 -92.2011 243° Southwest 435 501 30,000  Level Houston Center
01:02PM 31.5025 -92.3250 243° Southwest 430 495 30,000  Level Houston Center
01:03PM 31.4467 -92.4497 242° Southwest 431 496 30,000 -60 Level Houston Center
01:04PM 31.3769 -92.6000 242° Southwest 444 511 29,900 -600 Descending Houston Center
01:06PM 31.3217 -92.7214 242° Southwest 430 495 28,800 -960 Descending Houston Center
01:07PM 31.2689 -92.8414 243° Southwest 419 482 28,000 -420 Descending Houston Center
01:08PM 31.2150 -92.9642 243° Southwest 422 486 28,000  Level Houston Center
01:09PM 31.1597 -93.0864 242° Southwest 425 489 28,000  Level Houston Center
01:10PM 31.0936 -93.2303 242° Southwest 424 488 28,000  Level Houston Center
01:11PM 31.0381 -93.3517 242° Southwest 424 488 28,000  Level Houston Center
01:12PM 30.9814 -93.4739 242° Southwest 423 487 28,000  Level Houston Center
01:13PM 30.9278 -93.5906 242° Southwest 422 486 28,000  Level Houston Center
01:14PM 30.8731 -93.7100 242° Southwest 423 487 28,000  Level Houston Center
01:15PM 30.8058 -93.8536 241° Southwest 425 489 28,000  Level Houston Center
01:16PM 30.7511 -93.9742 242° Southwest 426 490 28,000 -1,680 Level Houston Center
01:21PM 30.4390 -94.6040 242° Southwest 365 420 17,000 -1,800 Descending FlightAware
01:22PM 30.4060 -94.6540 233° Southwest 365 420 17,000 -1,980 Level FlightAware
01:23PM 30.3590 -94.7280 234° Southwest 353 406 14,400 -2,640 Descending FlightAware
01:24PM 30.3120 -94.8000 233° Southwest 347 399 13,000 -1,140 Descending FlightAware
01:24PM 30.2810 -94.8490 234° Southwest 342 394 12,900 -120 Descending FlightAware
01:25PM 30.2550 -94.8890 233° Southwest 340 391 12,900 -420 Level FlightAware
01:25PM 30.2130 -94.9540 233° Southwest 342 394 12,400 -1,320 Descending FlightAware
01:26PM 30.1790 -95.0050 232° Southwest 340 391 11,200 -1,860 Descending FlightAware
01:27PM 30.1400 -95.0600 231° Southwest 332 382 10,100 -1,500 Descending FlightAware
01:27PM 30.1230 -95.0740 215° Southwest 332 382 9,900 -300 Descending FlightAware
01:27PM 30.0770 -95.0950 202° Southwest 330 380 9,900  Level FlightAware
01:28PM 30.0470 -95.1080 201° Southwest 329 379 9,900  Level FlightAware
01:28PM 30.0040 -95.1270 201° Southwest 319 367 9,900 -300 Level FlightAware
01:29PM 29.9620 -95.1450 200° South 295 339 9,600 -900 Descending FlightAware
01:29PM 29.9270 -95.1600 200° South 288 331 9,000 -1,500 Descending FlightAware
01:30PM 29.8940 -95.1750 202° Southwest 282 325 8,300 -1,260 Descending FlightAware
01:30PM 29.8610 -95.1890 200° South 279 321 7,900 -660 Descending FlightAware
01:31PM 29.8280 -95.2020 199° South 271 312 7,700 -1,140 Descending FlightAware
01:31PM 29.7930 -95.2170 200° South 275 316 6,800 -1,800 Descending FlightAware
01:32PM 29.7590 -95.2320 201° Southwest 276 318 6,000 -1,380 Descending FlightAware
01:32PM 29.7450 -95.2410 209° Southwest 266 306 5,900 -240 Descending FlightAware
01:32PM 29.7340 -95.2560 230° Southwest 250 288 5,900  Level FlightAware
01:32PM 29.7310 -95.2700 256° West 240 276 5,900 -1,080 Level FlightAware
01:33PM 29.7440 -95.3030 294° West 227 261 5,200 -1,980 Descending FlightAware
01:33PM 29.7600 -95.3310 303° West 233 268 4,000 -1,860 Descending FlightAware
01:34PM 29.7710 -95.3610 293° West 206 237 3,500 -720 Descending FlightAware
01:34PM 29.7670 -95.3750 252° West 182 209 3,500 -600 Level FlightAware
01:34PM 29.7580 -95.3830 218° Southwest 175 201 3,200 -1,200 Descending FlightAware
01:34PM 29.7490 -95.3850 191° South 173 199 3,000 -1,200 Descending FlightAware
01:35PM 29.7270 -95.3750 158° South 168 193 2,400 -1,260 Descending FlightAware
01:35PM 29.7100 -95.3560 136° Southeast 153 176 1,700 -1,140 Descending FlightAware
01:36PM 29.6970 -95.3400 133° Southeast 148 170 1,300 -900 Descending FlightAware
01:36PM 29.6830 -95.3240 135° Southeast 149 171 900 -900 Descending FlightAware
01:37PM 29.6690 -95.3070 133° Southeast 155 178 500 -900 Descending FlightAware
01:37PM 29.6560 -95.2910 133° Southeast 148 170 100 -900 Descending FlightAware
01:45PM 29.6454 -95.2789 180° South  Level Estimated
01:46PM 29.6454 -95.2789 180° South  Level Estimated